createdAt,value
2017-10-29T00:01:48.459Z,96.10
2017-10-29T00:04:16.219Z,96.10
2017-10-29T00:06:44.035Z,96.10
2017-10-29T00:09:11.795Z,95.80
2017-10-29T00:11:40.348Z,95.80
2017-10-29T00:14:08.306Z,95.80
2017-10-29T00:16:35.904Z,95.50
2017-10-29T00:19:03.405Z,95.30
2017-10-29T00:21:31.650Z,95.60
2017-10-29T00:23:59.142Z,95.50
2017-10-29T00:26:26.645Z,95.20
2017-10-29T00:28:54.122Z,95.50
2017-10-29T00:31:21.609Z,95.70
2017-10-29T00:33:49.861Z,95.20
2017-10-29T00:36:17.352Z,95.10
2017-10-29T00:38:45.611Z,94.90
2017-10-29T00:41:13.865Z,95.30
2017-10-29T00:43:41.356Z,95.00
2017-10-29T00:46:09.615Z,94.90
2017-10-29T00:48:37.101Z,94.90
2017-10-29T00:51:04.605Z,95.00
2017-10-29T00:53:32.104Z,95.00
2017-10-29T00:56:00.368Z,94.50
2017-10-29T00:58:27.859Z,94.50
2017-10-29T01:00:55.355Z,94.30
2017-10-29T01:03:22.837Z,94.30
2017-10-29T01:05:50.359Z,93.90
2017-10-29T01:08:17.851Z,93.90
2017-10-29T01:10:45.334Z,94.20
2017-10-29T01:13:13.595Z,93.90
2017-10-29T01:15:41.843Z,93.40
2017-10-29T01:18:09.331Z,93.30
2017-10-29T01:20:36.809Z,93.40
2017-10-29T01:23:05.054Z,93.50
2017-10-29T01:25:32.538Z,93.40
2017-10-29T01:28:00.025Z,93.60
2017-10-29T01:30:27.506Z,93.10
2017-10-29T01:32:54.991Z,93.70
2017-10-29T01:35:22.488Z,93.50
2017-10-29T01:37:50.733Z,93.40
2017-10-29T01:40:18.222Z,93.40
2017-10-29T01:42:46.479Z,93.40
2017-10-29T01:45:13.967Z,93.40
2017-10-29T01:47:42.214Z,93.30
2017-10-29T01:50:09.698Z,93.30
2017-10-29T01:52:37.941Z,92.50
2017-10-29T01:55:05.427Z,92.50
2017-10-29T01:57:33.676Z,92.40
2017-10-29T02:00:01.182Z,92.40
2017-10-29T02:02:28.667Z,92.10
2017-10-29T02:04:56.149Z,92.30
2017-10-29T02:07:23.634Z,92.60
2017-10-29T02:09:51.887Z,92.50
2017-10-29T02:12:20.137Z,91.70
2017-10-29T02:14:47.632Z,92.00
2017-10-29T02:17:15.110Z,91.90
2017-10-29T02:19:43.365Z,92.20
2017-10-29T02:22:10.845Z,92.20
2017-10-29T02:24:39.094Z,92.40
2017-10-29T02:27:06.580Z,92.40
2017-10-29T02:29:34.838Z,92.10
2017-10-29T02:32:02.313Z,92.10
2017-10-29T02:34:30.565Z,92.30
2017-10-29T02:36:58.049Z,92.20
2017-10-29T02:39:26.311Z,92.60
2017-10-29T02:41:54.641Z,93.20
2017-10-29T02:44:22.123Z,93.20
2017-10-29T02:46:49.608Z,94.30
2017-10-29T02:49:17.105Z,94.70
2017-10-29T02:51:44.586Z,95.30
2017-10-29T02:54:12.066Z,95.40
2017-10-29T02:56:39.553Z,95.90
2017-10-29T02:59:07.039Z,96.80
2017-10-29T03:01:34.526Z,97.20
2017-10-29T03:04:02.016Z,96.90
2017-10-29T03:06:29.597Z,96.90
2017-10-29T03:08:57.848Z,97.10
2017-10-29T03:11:25.343Z,97.00
2017-10-29T03:13:53.590Z,97.20
2017-10-29T03:16:21.078Z,97.20
2017-10-29T03:18:49.335Z,97.60
2017-10-29T03:21:16.824Z,97.60
2017-10-29T03:23:44.315Z,97.90
2017-10-29T03:26:11.797Z,97.80
2017-10-29T03:28:39.279Z,98.10
2017-10-29T03:31:07.553Z,97.80
2017-10-29T03:33:35.810Z,97.90
2017-10-29T03:36:03.295Z,97.90
2017-10-29T03:38:31.555Z,97.60
2017-10-29T03:40:59.046Z,97.60
2017-10-29T03:43:27.290Z,97.00
2017-10-29T03:45:54.773Z,97.00
2017-10-29T03:48:23.047Z,95.80
2017-10-29T03:50:51.301Z,95.40
2017-10-29T03:53:20.294Z,94.60
2017-10-29T03:55:47.776Z,94.60
2017-10-29T03:58:16.021Z,94.20
2017-10-29T04:00:43.498Z,93.80
2017-10-29T04:03:10.984Z,93.60
2017-10-29T04:05:38.470Z,94.30
2017-10-29T04:08:05.957Z,94.00
2017-10-29T04:10:33.468Z,93.70
2017-10-29T04:13:00.955Z,93.20
2017-10-29T04:15:28.443Z,93.70
2017-10-29T04:17:55.956Z,93.10
2017-10-29T04:20:23.441Z,92.20
2017-10-29T04:22:50.922Z,92.60
2017-10-29T04:25:18.402Z,92.20
2017-10-29T04:27:46.649Z,91.90
2017-10-29T04:30:14.133Z,91.80
2017-10-29T04:32:42.383Z,91.70
2017-10-29T04:35:09.869Z,91.70
2017-10-29T04:37:38.125Z,91.40
2017-10-29T04:40:05.615Z,91.30
2017-10-29T04:42:33.866Z,91.90
2017-10-29T04:45:01.359Z,91.90
2017-10-29T04:47:28.852Z,92.60
2017-10-29T04:49:56.343Z,92.20
2017-10-29T04:52:25.339Z,92.60
2017-10-29T04:54:52.825Z,92.60
2017-10-29T04:57:21.068Z,94.20
2017-10-29T04:59:48.559Z,94.20
2017-10-29T05:02:16.815Z,94.20
2017-10-29T05:04:44.308Z,94.20
2017-10-29T05:07:11.786Z,94.70
2017-10-29T05:09:39.284Z,95.20
2017-10-29T05:12:06.760Z,95.90
2017-10-29T05:14:35.011Z,97.30
2017-10-29T05:17:02.504Z,97.30
2017-10-29T05:19:30.755Z,97.40
2017-10-29T05:21:58.235Z,97.30
2017-10-29T05:24:26.491Z,97.70
2017-10-29T05:26:53.974Z,97.60
2017-10-29T05:29:22.227Z,98.30
2017-10-29T05:31:49.704Z,98.60
2017-10-29T05:34:17.214Z,98.00
2017-10-29T05:36:44.695Z,98.00
2017-10-29T05:39:12.182Z,98.10
2017-10-29T05:41:40.426Z,98.00
2017-10-29T05:44:07.901Z,97.90
2017-10-29T05:46:35.395Z,98.00
2017-10-29T05:49:02.882Z,98.90
2017-10-29T05:51:30.367Z,97.80
2017-10-29T05:53:57.850Z,97.70
2017-10-29T05:56:26.093Z,97.70
2017-10-29T05:58:53.566Z,97.60
2017-10-29T06:01:21.081Z,97.60
2017-10-29T06:03:48.599Z,97.80
2017-10-29T06:06:16.925Z,97.50
2017-10-29T06:08:44.514Z,97.40
2017-10-29T06:11:12.043Z,99.90
2017-10-29T06:13:39.535Z,95.60
2017-10-29T06:16:07.194Z,95.50
2017-10-29T06:18:34.665Z,95.90
2017-10-29T06:21:02.170Z,96.90
2017-10-29T06:23:29.646Z,97.30
2017-10-29T06:25:57.234Z,96.40
2017-10-29T06:28:24.772Z,96.80
2017-10-29T06:30:52.422Z,97.50
2017-10-29T06:33:19.909Z,96.30
2017-10-29T06:35:47.571Z,96.00
2017-10-29T06:38:15.067Z,96.40
2017-10-29T06:40:43.381Z,95.50
2017-10-29T06:43:10.942Z,95.50
2017-10-29T06:45:38.810Z,99.90
2017-10-29T06:48:06.435Z,94.40
2017-10-29T06:50:34.806Z,94.20
2017-10-29T06:53:02.384Z,94.20
2017-10-29T06:55:30.847Z,94.10
2017-10-29T06:57:58.339Z,94.10
2017-10-29T07:00:25.966Z,95.40
2017-10-29T07:02:53.496Z,94.80
2017-10-29T07:05:21.110Z,94.50
2017-10-29T07:07:49.362Z,94.50
2017-10-29T07:10:17.618Z,94.90
2017-10-29T07:12:45.278Z,94.90
2017-10-29T07:15:12.875Z,93.80
2017-10-29T07:17:41.165Z,93.60
2017-10-29T07:20:09.456Z,93.80
2017-10-29T07:22:36.942Z,93.70
2017-10-29T07:25:04.527Z,93.60
2017-10-29T07:27:32.096Z,93.00
2017-10-29T07:29:59.573Z,92.80
2017-10-29T07:32:27.868Z,93.30
2017-10-29T07:34:55.358Z,93.20
2017-10-29T07:37:22.846Z,93.80
2017-10-29T07:39:50.572Z,92.80
2017-10-29T07:42:18.135Z,93.10
2017-10-29T07:44:45.699Z,92.00
2017-10-29T07:47:13.295Z,94.50
2017-10-29T07:49:40.795Z,91.30
2017-10-29T07:52:08.281Z,91.80
2017-10-29T07:54:35.793Z,92.60
2017-10-29T07:57:04.118Z,92.00
2017-10-29T07:59:31.690Z,92.00
2017-10-29T08:01:59.190Z,92.40
2017-10-29T08:04:27.539Z,94.30
2017-10-29T08:06:55.069Z,94.40
2017-10-29T08:09:22.631Z,93.60
2017-10-29T08:11:50.143Z,93.60
2017-10-29T08:14:18.400Z,99.50
2017-10-29T08:16:45.885Z,99.10
2017-10-29T08:19:13.375Z,98.20
2017-10-29T08:21:40.870Z,97.20
2017-10-29T08:24:08.379Z,96.60
2017-10-29T08:26:36.808Z,94.80
2017-10-29T08:29:04.294Z,94.80
2017-10-29T08:31:31.769Z,93.30
2017-10-29T08:34:01.003Z,92.80
2017-10-29T08:36:28.618Z,92.80
2017-10-29T08:38:56.533Z,91.60
2017-10-29T08:41:24.296Z,92.20
2017-10-29T08:43:51.792Z,90.00
2017-10-29T08:46:19.291Z,88.20
2017-10-29T08:48:46.333Z,92.40
2017-10-29T08:51:14.238Z,85.80
2017-10-29T08:53:41.317Z,85.60
2017-10-29T08:56:08.437Z,90.70
2017-10-29T08:58:35.553Z,90.80
2017-10-29T09:01:03.367Z,90.70
2017-10-29T09:03:30.416Z,90.70
2017-10-29T09:05:57.885Z,89.90
2017-10-29T09:08:25.825Z,92.00
2017-10-29T09:10:53.534Z,94.70
2017-10-29T09:13:21.155Z,88.30
2017-10-29T09:15:48.702Z,89.50
2017-10-29T09:18:16.195Z,90.70
2017-10-29T09:20:44.064Z,90.60
2017-10-29T09:23:11.622Z,90.40
2017-10-29T09:25:39.324Z,88.70
2017-10-29T09:28:07.846Z,89.00
2017-10-29T09:30:35.497Z,89.70
2017-10-29T09:33:03.266Z,89.80
2017-10-29T09:35:30.835Z,85.90
2017-10-29T09:37:58.752Z,91.20
2017-10-29T09:40:26.343Z,89.90
2017-10-29T09:42:54.599Z,91.40
2017-10-29T09:45:22.860Z,92.10
2017-10-29T09:47:50.361Z,92.20
2017-10-29T09:50:17.965Z,91.60
2017-10-29T09:52:45.719Z,92.80
2017-10-29T09:55:13.218Z,91.80
2017-10-29T09:57:40.715Z,94.40
2017-10-29T10:00:08.211Z,90.40
2017-10-29T10:02:35.703Z,91.70
2017-10-29T10:05:03.975Z,79.60
2017-10-29T10:07:31.506Z,79.50
2017-10-29T10:10:00.269Z,86.20
2017-10-29T10:12:28.780Z,89.30
2017-10-29T10:14:57.959Z,91.50
2017-10-29T10:17:26.369Z,90.60
2017-10-29T10:19:53.957Z,90.50
2017-10-29T10:22:21.477Z,91.40
2017-10-29T10:24:49.226Z,92.40
2017-10-29T10:27:16.799Z,89.30
2017-10-29T10:29:44.488Z,90.80
2017-10-29T10:32:11.991Z,93.30
2017-10-29T10:34:39.519Z,92.40
2017-10-29T10:37:07.774Z,90.70
2017-10-29T10:39:35.263Z,90.60
2017-10-29T10:42:03.663Z,92.30
2017-10-29T10:44:31.270Z,92.30
2017-10-29T10:46:59.016Z,92.80
2017-10-29T10:49:26.493Z,94.10
2017-10-29T10:51:53.991Z,93.30
2017-10-29T10:54:22.503Z,94.30
2017-10-29T10:56:50.514Z,94.10
2017-10-29T10:59:18.136Z,92.30
2017-10-29T11:01:45.904Z,92.20
2017-10-29T11:04:13.567Z,90.50
2017-10-29T11:06:41.148Z,91.50
2017-10-29T11:09:08.938Z,91.40
2017-10-29T11:11:36.480Z,92.20
2017-10-29T11:14:05.345Z,94.40
2017-10-29T11:16:33.008Z,94.60
2017-10-29T11:19:00.555Z,94.30
2017-10-29T11:21:28.317Z,92.30
2017-10-29T11:23:55.818Z,91.50
2017-10-29T11:26:23.684Z,93.90
2017-10-29T11:28:51.968Z,93.40
2017-10-29T11:31:19.527Z,93.30
2017-10-29T11:33:47.029Z,94.20
2017-10-29T11:36:15.539Z,94.80
2017-10-29T11:38:43.511Z,94.80
2017-10-29T11:41:10.990Z,95.90
2017-10-29T11:43:38.493Z,99.90
2017-10-29T11:46:06.742Z,96.00
2017-10-29T11:48:34.234Z,95.90
2017-10-29T11:51:02.490Z,93.70
2017-10-29T11:53:29.990Z,93.70
2017-10-29T11:55:57.528Z,94.70
2017-10-29T11:58:25.781Z,99.90
2017-10-29T12:00:53.266Z,99.90
2017-10-29T12:03:21.531Z,96.70
2017-10-29T12:05:49.800Z,99.90
2017-10-29T12:08:18.062Z,99.90
2017-10-29T12:10:45.565Z,99.90
2017-10-29T12:13:13.057Z,99.90
2017-10-29T12:15:40.559Z,99.90
2017-10-29T12:18:08.053Z,99.90
2017-10-29T12:20:35.551Z,99.90
2017-10-29T12:23:03.043Z,99.90
2017-10-29T12:25:31.302Z,99.90
2017-10-29T12:28:00.309Z,99.90
2017-10-29T12:30:28.628Z,99.90
2017-10-29T12:32:56.140Z,99.90
2017-10-29T12:35:23.630Z,99.90
2017-10-29T12:37:51.117Z,99.70
2017-10-29T12:40:18.611Z,97.70
2017-10-29T12:42:46.116Z,99.90
2017-10-29T12:45:13.612Z,99.90
2017-10-29T12:47:41.111Z,99.90
2017-10-29T12:50:09.394Z,99.90
2017-10-29T12:52:37.658Z,99.90
2017-10-29T12:55:05.156Z,99.90
2017-10-29T12:57:32.652Z,99.90
2017-10-29T13:00:00.139Z,94.60
2017-10-29T13:02:28.391Z,99.90
2017-10-29T13:04:55.887Z,99.90
2017-10-29T13:07:24.150Z,94.60
2017-10-29T13:09:52.402Z,76.00
2017-10-29T13:12:19.894Z,75.60
2017-10-29T13:14:48.158Z,74.00
2017-10-29T13:17:16.416Z,88.20
2017-10-29T13:19:43.911Z,90.10
2017-10-29T13:22:12.175Z,96.30
2017-10-29T13:24:39.678Z,96.30
2017-10-29T13:27:07.169Z,96.70
2017-10-29T13:29:36.967Z,86.20
2017-10-29T13:32:06.707Z,93.90
2017-10-29T13:34:35.554Z,83.20
2017-10-29T13:37:03.522Z,79.20
2017-10-29T13:39:32.799Z,73.40
2017-10-29T13:42:01.624Z,84.10
2017-10-29T13:44:31.171Z,78.10
2017-10-29T13:47:00.378Z,84.40
2017-10-29T13:49:29.880Z,78.20
2017-10-29T13:52:00.177Z,79.80
2017-10-29T13:54:28.848Z,80.70
2017-10-29T13:56:57.954Z,82.70
2017-10-29T13:59:25.699Z,89.60
2017-10-29T14:01:53.274Z,93.20
2017-10-29T14:04:20.928Z,92.00
2017-10-29T14:06:48.571Z,88.90
2017-10-29T14:09:16.151Z,84.70
2017-10-29T14:11:43.643Z,92.10
2017-10-29T14:14:11.253Z,85.40
2017-10-29T14:16:38.758Z,81.90
2017-10-29T14:19:06.337Z,82.80
2017-10-29T14:21:35.515Z,82.90
2017-10-29T14:24:03.005Z,83.10
2017-10-29T14:26:31.293Z,87.20
2017-10-29T14:28:59.738Z,84.30
2017-10-29T14:31:27.250Z,84.40
2017-10-29T14:33:54.749Z,77.10
2017-10-29T14:36:22.358Z,79.80
2017-10-29T14:38:50.619Z,69.90
2017-10-29T14:41:18.897Z,67.30
2017-10-29T14:43:47.302Z,64.90
2017-10-29T14:46:14.881Z,64.80
2017-10-29T14:48:43.207Z,77.90
2017-10-29T14:51:10.756Z,78.10
2017-10-29T14:53:38.264Z,70.60
2017-10-29T14:56:05.765Z,86.40
2017-10-29T14:58:33.281Z,77.60
2017-10-29T15:01:00.812Z,74.30
2017-10-29T15:03:29.071Z,77.70
2017-10-29T15:05:56.583Z,77.40
2017-10-29T15:08:24.174Z,85.80
2017-10-29T15:10:51.821Z,72.30
2017-10-29T15:13:20.706Z,84.40
2017-10-29T15:15:49.308Z,89.50
2017-10-29T15:18:17.949Z,80.10
2017-10-29T15:20:46.467Z,82.80
2017-10-29T15:23:16.110Z,83.10
2017-10-29T15:25:44.882Z,83.40
2017-10-29T15:28:14.470Z,56.50
2017-10-29T15:30:42.281Z,56.60
2017-10-29T15:33:09.948Z,53.50
2017-10-29T15:35:38.415Z,52.80
2017-10-29T15:38:06.558Z,49.70
2017-10-29T15:40:34.085Z,53.20
2017-10-29T15:43:02.351Z,59.30
2017-10-29T15:45:30.646Z,54.70
2017-10-29T15:47:59.083Z,50.70
2017-10-29T15:50:26.676Z,50.70
2017-10-29T15:52:54.994Z,49.20
2017-10-29T15:55:22.487Z,49.20
2017-10-29T15:57:49.992Z,46.20
2017-10-29T16:03:10.618Z,47.60
2017-10-29T16:05:38.114Z,45.90
2017-10-29T16:08:05.607Z,49.30
2017-10-29T16:10:33.872Z,48.30
2017-10-29T16:13:01.883Z,48.20
2017-10-29T16:15:29.435Z,56.20
2017-10-29T16:17:57.759Z,54.30
2017-10-29T16:20:25.462Z,54.20
2017-10-29T16:22:53.857Z,47.90
2017-10-29T16:25:22.206Z,45.10
2017-10-29T16:27:50.072Z,45.10
2017-10-29T16:30:17.690Z,46.40
2017-10-29T16:32:45.250Z,50.80
2017-10-29T16:35:12.914Z,47.70
2017-10-29T16:37:40.608Z,62.20
2017-10-29T16:40:08.261Z,57.80
2017-10-29T16:42:35.756Z,63.00
2017-10-29T16:45:09.449Z,51.80
2017-10-29T16:47:37.336Z,44.70
2017-10-29T16:50:05.595Z,53.20
2017-10-29T16:52:33.102Z,52.90
2017-10-29T16:55:00.982Z,48.50
2017-10-29T16:57:28.536Z,50.40
2017-10-29T16:59:56.570Z,59.80
2017-10-29T17:02:24.906Z,52.30
2017-10-29T17:04:52.458Z,52.10
2017-10-29T17:07:20.062Z,45.40
2017-10-29T17:09:47.676Z,55.80
2017-10-29T17:12:15.206Z,52.10
2017-10-29T17:14:43.463Z,47.20
2017-10-29T17:17:11.788Z,57.40
2017-10-29T17:19:39.322Z,57.30
2017-10-29T17:22:07.545Z,50.00
2017-10-29T17:24:36.431Z,48.60
2017-10-29T17:27:05.018Z,49.10
2017-10-29T17:29:34.623Z,50.40
2017-10-29T17:32:02.474Z,50.20
2017-10-29T17:34:30.343Z,52.50
2017-10-29T17:36:59.015Z,49.80
2017-10-29T17:39:26.868Z,51.60
2017-10-29T17:41:55.923Z,48.90
2017-10-29T17:44:24.794Z,48.10
2017-10-29T17:46:53.305Z,58.60
2017-10-29T17:49:21.838Z,49.80
2017-10-29T17:51:50.602Z,46.90
2017-10-29T17:54:18.952Z,53.90
2017-10-29T17:56:48.610Z,55.10
2017-10-29T17:59:16.661Z,54.90
2017-10-29T18:01:44.685Z,57.90
2017-10-29T18:04:12.832Z,69.10
2017-10-29T18:06:42.761Z,68.40
2017-10-29T18:09:11.413Z,68.60
2017-10-29T18:11:40.466Z,71.20
2017-10-29T18:14:09.581Z,71.10
2017-10-29T18:16:37.467Z,73.40
2017-10-29T18:19:05.679Z,71.70
2017-10-29T18:21:34.782Z,75.40
2017-10-29T18:24:03.451Z,75.20
2017-10-29T18:26:31.070Z,77.20
2017-10-29T18:28:58.903Z,83.00
2017-10-29T18:31:26.639Z,79.60
2017-10-29T18:33:55.313Z,79.70
2017-10-29T18:36:23.901Z,84.60
2017-10-29T18:38:53.007Z,74.90
2017-10-29T18:41:21.273Z,82.00
2017-10-29T18:43:49.655Z,80.10
2017-10-29T18:46:17.193Z,79.90
2017-10-29T18:48:45.015Z,81.20
2017-10-29T18:51:13.031Z,79.20
2017-10-29T18:53:41.374Z,80.90
2017-10-29T18:56:09.950Z,82.70
2017-10-29T18:58:38.317Z,81.70
2017-10-29T19:01:05.823Z,81.80
2017-10-29T19:03:33.332Z,82.50
2017-10-29T19:06:01.546Z,80.10
2017-10-29T19:08:29.596Z,86.50
2017-10-29T19:10:57.652Z,84.10
2017-10-29T19:13:25.475Z,81.70
2017-10-29T19:15:53.396Z,82.40
2017-10-29T19:18:21.732Z,80.60
2017-10-29T19:20:49.393Z,81.80
2017-10-29T19:23:17.088Z,83.50
2017-10-29T19:25:45.048Z,83.80
2017-10-29T19:28:13.642Z,85.50
2017-10-29T19:30:42.048Z,85.30
2017-10-29T19:33:10.418Z,86.00
2017-10-29T19:35:38.051Z,83.70
2017-10-29T19:38:07.106Z,83.60
2017-10-29T19:40:35.196Z,83.60
2017-10-29T19:43:02.818Z,82.90
2017-10-29T19:45:30.963Z,88.60
2017-10-29T19:48:00.360Z,84.30
2017-10-29T19:50:28.937Z,90.00
2017-10-29T19:52:57.950Z,84.50
2017-10-29T19:55:26.853Z,90.00
2017-10-29T19:57:55.043Z,90.00
2017-10-29T20:00:22.874Z,86.20
2017-10-29T20:02:51.841Z,88.50
2017-10-29T20:05:20.289Z,88.50
2017-10-29T20:07:48.294Z,87.90
2017-10-29T20:10:16.473Z,89.10
2017-10-29T20:12:43.958Z,88.60
2017-10-29T20:15:12.206Z,89.60
2017-10-29T20:17:39.686Z,89.50
2017-10-29T20:20:07.943Z,90.50
2017-10-29T20:22:35.460Z,90.40
2017-10-29T20:25:02.955Z,90.40
2017-10-29T20:27:30.444Z,90.20
2017-10-29T20:29:58.707Z,90.70
2017-10-29T20:32:26.219Z,90.70
2017-10-29T20:34:53.721Z,91.50
2017-10-29T20:37:21.205Z,92.00
2017-10-29T20:39:49.463Z,91.80
2017-10-29T20:42:16.970Z,91.80
2017-10-29T20:44:44.472Z,91.60
2017-10-29T20:47:12.754Z,93.90
2017-10-29T20:49:40.229Z,93.90
2017-10-29T20:52:08.487Z,94.10
2017-10-29T20:54:35.977Z,94.10
2017-10-29T20:57:04.231Z,94.70
2017-10-29T20:59:32.652Z,94.60
2017-10-29T21:02:00.154Z,95.00
2017-10-29T21:04:27.639Z,94.70
2017-10-29T21:06:55.921Z,96.40
2017-10-29T21:09:24.181Z,96.50
2017-10-29T21:11:51.671Z,96.40
2017-10-29T21:14:19.944Z,97.30
2017-10-29T21:16:48.979Z,96.80
2017-10-29T21:19:19.634Z,96.70
2017-10-29T21:21:48.658Z,96.40
2017-10-29T21:24:17.092Z,96.50
2017-10-29T21:26:46.713Z,96.70
2017-10-29T21:29:14.197Z,97.60
2017-10-29T21:31:42.399Z,97.60
2017-10-29T21:34:10.170Z,97.30
2017-10-29T21:36:38.395Z,97.70
2017-10-29T21:39:06.723Z,97.70
2017-10-29T21:41:34.545Z,98.30
2017-10-29T21:44:02.240Z,97.30
2017-10-29T21:46:32.061Z,97.60
2017-10-29T21:49:00.468Z,97.60
2017-10-29T21:51:28.899Z,98.10
2017-10-29T21:53:56.386Z,98.00
2017-10-29T21:56:23.869Z,98.30
2017-10-29T21:58:54.649Z,99.30
2017-10-29T22:01:22.147Z,98.80
2017-10-29T22:03:49.646Z,98.60
2017-10-29T22:06:17.133Z,98.50
2017-10-29T22:08:44.636Z,98.60
2017-10-29T22:11:12.125Z,98.50
2017-10-29T22:13:39.639Z,98.40
2017-10-29T22:16:07.646Z,98.30
2017-10-29T22:18:35.593Z,98.60
2017-10-29T22:21:04.118Z,98.70
2017-10-29T22:23:32.623Z,98.60
2017-10-29T22:26:01.509Z,98.30
2017-10-29T22:28:29.919Z,98.10
2017-10-29T22:30:57.943Z,97.60
2017-10-29T22:33:27.733Z,98.10
2017-10-29T22:35:56.233Z,97.60
2017-10-29T22:38:23.724Z,98.30
2017-10-29T22:40:52.753Z,98.30
2017-10-29T22:43:21.882Z,98.30
2017-10-29T22:45:50.435Z,98.30
2017-10-29T22:48:19.256Z,97.50
2017-10-29T22:50:48.135Z,97.50
2017-10-29T22:53:15.637Z,97.90
2017-10-29T22:55:48.926Z,97.60
2017-10-29T22:58:17.574Z,97.60
2017-10-29T23:00:45.258Z,97.50
2017-10-29T23:03:13.467Z,97.80
2017-10-29T23:05:53.611Z,98.10
2017-10-29T23:08:32.409Z,98.20
2017-10-29T23:11:00.962Z,98.20
2017-10-29T23:13:30.365Z,97.70
2017-10-29T23:15:58.266Z,97.70
2017-10-29T23:18:26.448Z,97.00
2017-10-29T23:20:54.174Z,97.50
2017-10-29T23:23:22.536Z,98.10
2017-10-29T23:25:51.086Z,97.70
2017-10-29T23:28:19.341Z,98.20
2017-10-29T23:30:46.844Z,98.20
2017-10-29T23:33:15.356Z,98.50
2017-10-29T23:35:45.116Z,98.50
2017-10-29T23:38:13.600Z,99.90
2017-10-29T23:40:41.163Z,99.90
2017-10-29T23:43:08.716Z,98.80
2017-10-29T23:45:36.234Z,98.40
2017-10-29T23:48:03.851Z,98.30
2017-10-29T23:50:32.375Z,98.60
2017-10-29T23:52:59.865Z,98.50
2017-10-29T23:55:27.356Z,98.20
2017-10-29T23:57:57.236Z,98.30
